LNG Enugu — ZCDM5 — position and weather

sailwx.info

Track history (hours):
 
Tides and Currents Weather Stations Pressure Air Temp Water Temp Dewpoint Dewpoint Depression Visibility Wind Speed Wind Dir Waves Ship Positions

LNG Enugu

Last reported at 2018-May-30 11:21 UTC. Time now 2018-Jun-23 18:05 UTC.
Position N 27°36' W 015°14'.
Warning: this ship's position is 24 days out of date.

Length 285 m; draft 9.6 m.

Type: Ship (hazmat cat D). MMSI: 310482000.

Date/timePositionNaut miles runAvg speedWind from/ knotsBaromVisibWave heightAir tempDewpointWater temp
2018-May-30 11:21N 27°36' W 015°14'3 7.5
2018-May-30 11:00N 27°38' W 015°13'4 7.2
2018-May-30 10:30N 27°42' W 015°11'4 7.2
2018-May-30 10:00N 27°45' W 015°10'3 7.1
2018-May-30 09:30N 27°48' W 015°08'4 7.2
2018-May-30 09:00N 27°52' W 015°07'4 7.4
2018-May-30 08:30N 27°55' W 015°05'4 7.4
2018-May-30 08:00N 27°59' W 015°04'4 7.4
2018-May-30 07:30N 28°02' W 015°02'4 7.5
2018-May-30 07:00N 28°06' W 015°01'4 7.6
2018-May-30 06:30N 28°09' W 014°59'4 7.9
2018-May-30 06:00N 28°13' W 014°58'4 7.7
2018-May-30 05:30N 28°17' W 014°57'4 7.4
2018-May-30 05:00N 28°20' W 014°55'4 7.2
2018-May-30 04:30N 28°23' W 014°54'4 7.3
2018-May-30 04:00N 28°27' W 014°52'4 7.1
2018-May-30 03:30N 28°30' W 014°51'3 7.0
2018-May-30 03:00N 28°34' W 014°50'  
2018-May-24 20:08N 47°07' W 002°22'1 8.0
2018-May-24 20:00N 47°08' W 002°21'611.4
2018-May-24 19:28N 47°13' W 002°16'511.4
2018-May-24 18:59N 47°17' W 002°10'2 3.5
2018-May-24 18:30N 47°18' W 002°08'0 0.0
2018-May-23 10:46N 47°18' W 002°08'0 0.8
2018-May-23 10:29N 47°18' W 002°08'4 6.6
2018-May-23 09:55N 47°15' W 002°12'512.1
2018-May-23 09:30N 47°12' W 002°17'612.0
2018-May-23 09:00N 47°07' W 002°22'22015.3
2018-May-22 18:36N 44°59' W 006°41'216.9
2018-May-22 18:30N 44°58' W 006°43'816.1
2018-May-22 18:00N 44°50' W 006°46'816.1
2018-May-22 17:29N 44°42' W 006°48'  
Track history (hours):
 
Tides and Currents Weather Stations Pressure Air Temp Water Temp Dewpoint Dewpoint Depression Visibility Wind Speed Wind Dir Waves Ship Positions

LNG Enugu

Last reported at 2018-May-30 11:21 UTC. Time now 2018-Jun-23 18:05 UTC.
Position N 27°36' W 015°14'.
Warning: this ship's position is 24 days out of date.

Length 285 m; draft 9.6 m.

Type: Ship (hazmat cat D). MMSI: 310482000.

Date/timePositionNaut miles runAvg speedWind from/ knotsBaromVisibWave heightAir tempDewpointWater temp
2018-May-30 11:21N 27°36' W 015°14'3 7.5
2018-May-30 11:00N 27°38' W 015°13'4 7.2
2018-May-30 10:30N 27°42' W 015°11'4 7.2
2018-May-30 10:00N 27°45' W 015°10'3 7.1
2018-May-30 09:30N 27°48' W 015°08'4 7.2
2018-May-30 09:00N 27°52' W 015°07'4 7.4
2018-May-30 08:30N 27°55' W 015°05'4 7.4
2018-May-30 08:00N 27°59' W 015°04'4 7.4
2018-May-30 07:30N 28°02' W 015°02'4 7.5
2018-May-30 07:00N 28°06' W 015°01'4 7.6
2018-May-30 06:30N 28°09' W 014°59'4 7.9
2018-May-30 06:00N 28°13' W 014°58'4 7.7
2018-May-30 05:30N 28°17' W 014°57'4 7.4
2018-May-30 05:00N 28°20' W 014°55'4 7.2
2018-May-30 04:30N 28°23' W 014°54'4 7.3
2018-May-30 04:00N 28°27' W 014°52'4 7.1
2018-May-30 03:30N 28°30' W 014°51'3 7.0
2018-May-30 03:00N 28°34' W 014°50'  
2018-May-24 20:08N 47°07' W 002°22'1 8.0
2018-May-24 20:00N 47°08' W 002°21'611.4
2018-May-24 19:28N 47°13' W 002°16'511.4
2018-May-24 18:59N 47°17' W 002°10'2 3.5
2018-May-24 18:30N 47°18' W 002°08'0 0.0
2018-May-23 10:46N 47°18' W 002°08'0 0.8
2018-May-23 10:29N 47°18' W 002°08'4 6.6
2018-May-23 09:55N 47°15' W 002°12'512.1
2018-May-23 09:30N 47°12' W 002°17'612.0
2018-May-23 09:00N 47°07' W 002°22'22015.3
2018-May-22 18:36N 44°59' W 006°41'216.9
2018-May-22 18:30N 44°58' W 006°43'816.1
2018-May-22 18:00N 44°50' W 006°46'816.1
2018-May-22 17:29N 44°42' W 006°48'  

Dump ship's entire track history